createdAt,value
2022-12-06T00:01:32.238Z,33.97
2022-12-06T00:04:04.637Z,36.80
2022-12-06T00:06:34.357Z,36.60
2022-12-06T00:09:02.066Z,35.97
2022-12-06T00:11:32.610Z,33.75
2022-12-06T00:14:03.713Z,35.35
2022-12-06T00:16:32.836Z,33.00
2022-12-06T00:19:02.022Z,31.95
2022-12-06T00:21:31.944Z,34.40
2022-12-06T00:24:03.718Z,34.92
2022-12-06T00:26:31.974Z,34.38
2022-12-06T00:29:01.030Z,36.83
2022-12-06T00:31:31.015Z,34.58
2022-12-06T00:33:59.131Z,34.55
2022-12-06T00:36:29.503Z,34.08
2022-12-06T00:39:01.150Z,34.85
2022-12-06T00:41:29.095Z,35.55
2022-12-06T00:43:56.721Z,38.00
2022-12-06T00:46:28.212Z,34.60
2022-12-06T00:48:59.974Z,33.00
2022-12-06T00:51:29.803Z,33.72
2022-12-06T00:53:59.007Z,35.58
2022-12-06T00:56:27.193Z,34.25
2022-12-06T00:58:54.853Z,35.10
2022-12-06T01:01:26.505Z,31.70
2022-12-06T01:03:58.992Z,41.65
2022-12-06T01:06:31.923Z,33.47
2022-12-06T01:09:02.787Z,34.20
2022-12-06T01:11:31.383Z,38.70
2022-12-06T01:13:59.620Z,33.28
2022-12-06T01:16:29.848Z,33.45
2022-12-06T01:19:00.302Z,36.55
2022-12-06T01:21:29.664Z,33.50
2022-12-06T01:23:58.247Z,34.95
2022-12-06T01:26:28.818Z,36.63
2022-12-06T01:28:58.070Z,34.78
2022-12-06T01:31:30.719Z,36.78
2022-12-06T01:34:01.975Z,39.03
2022-12-06T01:36:30.527Z,34.45
2022-12-06T01:39:01.127Z,32.90
2022-12-06T01:41:29.324Z,37.70
2022-12-06T01:43:57.136Z,35.67
2022-12-06T01:46:36.865Z,34.47
2022-12-06T01:49:14.480Z,31.35
2022-12-06T01:51:47.103Z,34.00
2022-12-06T01:54:16.773Z,32.17
2022-12-06T01:56:44.963Z,33.25
2022-12-06T01:59:13.901Z,32.40
2022-12-06T02:01:42.213Z,33.47
2022-12-06T02:04:10.024Z,35.08
2022-12-06T02:06:40.435Z,30.42
2022-12-06T02:09:10.281Z,29.58
2022-12-06T02:11:38.462Z,33.47
2022-12-06T02:14:10.081Z,33.17
2022-12-06T02:16:46.260Z,30.45
2022-12-06T02:19:22.778Z,31.55
2022-12-06T02:22:23.765Z,33.17
2022-12-06T02:25:07.679Z,32.70
2022-12-06T02:30:46.519Z,28.10
2022-12-06T02:33:23.032Z,28.52
2022-12-06T02:36:04.577Z,32.15
2022-12-06T02:38:43.938Z,32.38
2022-12-06T02:41:20.648Z,33.58
2022-12-06T02:43:55.149Z,35.00
2022-12-06T02:46:25.552Z,33.95
2022-12-06T02:48:54.417Z,33.90
2022-12-06T02:51:23.369Z,32.70
2022-12-06T02:53:54.349Z,30.73
2022-12-06T02:56:23.759Z,30.90
2022-12-06T02:58:51.816Z,32.28
2022-12-06T03:01:26.822Z,34.20
2022-12-06T03:04:32.069Z,36.65
2022-12-06T03:07:12.494Z,33.08
2022-12-06T03:09:40.798Z,31.95
2022-12-06T03:12:18.980Z,28.38
2022-12-06T03:14:51.723Z,29.48
2022-12-06T03:17:27.453Z,29.37
2022-12-06T03:20:03.500Z,29.25
2022-12-06T03:22:39.799Z,28.92
2022-12-06T03:25:10.923Z,29.65
2022-12-06T03:27:41.378Z,27.75
2022-12-06T03:30:12.561Z,30.90
2022-12-06T03:32:44.736Z,28.17
2022-12-06T03:35:16.951Z,30.13
2022-12-06T03:37:50.664Z,33.55
2022-12-06T03:42:53.634Z,30.65
2022-12-06T03:45:25.593Z,32.03
2022-12-06T03:48:01.255Z,27.58
2022-12-06T03:50:43.844Z,28.75
2022-12-06T03:53:11.693Z,29.13
2022-12-06T03:55:40.055Z,29.45
2022-12-06T03:58:08.222Z,29.17
2022-12-06T04:00:36.575Z,26.58
2022-12-06T04:03:04.238Z,30.38
2022-12-06T04:05:31.727Z,32.30
2022-12-06T04:07:59.932Z,29.00
2022-12-06T04:10:27.653Z,29.85
2022-12-06T04:13:01.528Z,28.77
2022-12-06T04:18:16.399Z,30.83
2022-12-06T04:21:15.728Z,28.65
2022-12-06T04:23:46.866Z,27.65
2022-12-06T04:26:20.008Z,27.77
2022-12-06T04:29:06.972Z,27.45
2022-12-06T04:31:53.618Z,28.00
2022-12-06T04:34:40.417Z,26.45
2022-12-06T04:37:27.539Z,26.45
2022-12-06T04:39:55.262Z,29.45
2022-12-06T04:42:42.090Z,27.58
2022-12-06T04:45:09.955Z,26.88
2022-12-06T04:47:37.619Z,25.95
2022-12-06T04:50:06.122Z,26.08
2022-12-06T04:52:36.034Z,27.33
2022-12-06T04:55:08.236Z,26.08
2022-12-06T04:57:35.847Z,28.10
2022-12-06T05:00:04.897Z,28.27
2022-12-06T05:02:32.903Z,27.67
2022-12-06T05:05:00.589Z,27.80
2022-12-06T05:07:28.351Z,28.38
2022-12-06T05:09:56.028Z,29.10
2022-12-06T05:12:24.049Z,27.55
2022-12-06T05:14:52.245Z,26.80
2022-12-06T05:17:19.798Z,29.75
2022-12-06T05:19:47.827Z,30.95
2022-12-06T05:22:15.534Z,28.23
2022-12-06T05:24:43.116Z,29.63
2022-12-06T05:27:10.919Z,30.65
2022-12-06T05:29:38.623Z,31.17
2022-12-06T05:32:06.884Z,30.35
2022-12-06T05:34:34.407Z,31.30
2022-12-06T05:37:01.960Z,36.17
2022-12-06T05:39:29.644Z,30.45
2022-12-06T05:41:57.373Z,28.75
2022-12-06T05:44:25.523Z,29.35
2022-12-06T05:46:53.117Z,27.80
2022-12-06T05:49:21.635Z,26.23
2022-12-06T05:51:49.951Z,28.10
2022-12-06T05:54:17.579Z,27.75
2022-12-06T05:56:45.880Z,29.17
2022-12-06T05:59:13.477Z,28.13
2022-12-06T06:01:41.069Z,28.98
2022-12-06T06:04:08.646Z,26.23
2022-12-06T06:06:36.182Z,28.42
2022-12-06T06:09:03.715Z,27.70
2022-12-06T06:11:31.760Z,30.13
2022-12-06T06:13:59.254Z,31.27
2022-12-06T06:16:26.866Z,32.78
2022-12-06T06:18:54.939Z,33.22
2022-12-06T06:21:23.042Z,33.10
2022-12-06T06:23:51.420Z,30.25
2022-12-06T06:26:18.996Z,28.02
2022-12-06T06:28:46.487Z,29.67
2022-12-06T06:31:14.261Z,28.42
2022-12-06T06:33:42.450Z,29.10
2022-12-06T06:36:10.065Z,31.27
2022-12-06T06:38:38.061Z,29.60
2022-12-06T06:41:06.550Z,32.70
2022-12-06T06:43:34.675Z,33.15
2022-12-06T06:46:09.259Z,32.95
2022-12-06T06:48:39.430Z,35.25
2022-12-06T06:51:13.080Z,35.15
2022-12-06T06:53:41.401Z,37.13
2022-12-06T06:56:09.612Z,36.83
2022-12-06T06:58:37.566Z,33.50
2022-12-06T07:01:07.169Z,36.55
2022-12-06T07:03:35.579Z,33.17
2022-12-06T07:06:09.008Z,31.63
2022-12-06T07:08:36.809Z,34.15
2022-12-06T07:11:05.215Z,31.27
2022-12-06T07:13:32.835Z,32.55
2022-12-06T07:16:03.988Z,33.17
2022-12-06T07:18:32.159Z,32.70
2022-12-06T07:21:05.855Z,34.25
2022-12-06T07:26:07.106Z,31.50
2022-12-06T07:28:39.370Z,36.90
2022-12-06T07:31:12.831Z,35.83
2022-12-06T07:33:42.856Z,35.38
2022-12-06T07:36:13.604Z,33.35
2022-12-06T07:38:49.405Z,33.65
2022-12-06T07:41:37.330Z,30.92
2022-12-06T07:44:31.206Z,34.20
2022-12-06T07:46:59.647Z,32.50
2022-12-06T07:49:28.391Z,31.92
2022-12-06T07:51:56.449Z,31.15
2022-12-06T07:54:25.131Z,32.58
2022-12-06T07:56:53.232Z,29.95
2022-12-06T07:59:21.499Z,30.08
2022-12-06T08:01:49.195Z,31.92
2022-12-06T08:04:16.891Z,29.88
2022-12-06T08:06:45.620Z,31.67
2022-12-06T08:09:14.396Z,32.28
2022-12-06T08:11:42.857Z,32.85
2022-12-06T08:14:11.966Z,31.63
2022-12-06T08:16:42.414Z,33.38
2022-12-06T08:19:10.476Z,30.73
2022-12-06T08:21:38.251Z,29.33
2022-12-06T08:24:06.140Z,31.63
2022-12-06T08:26:33.843Z,32.00
2022-12-06T08:29:02.463Z,32.38
2022-12-06T08:31:31.934Z,31.30
2022-12-06T08:33:59.541Z,29.02
2022-12-06T08:36:28.889Z,30.58
2022-12-06T08:38:58.773Z,33.05
2022-12-06T08:41:45.248Z,29.98
2022-12-06T08:44:14.995Z,29.23
2022-12-06T08:46:43.372Z,29.38
2022-12-06T08:49:12.395Z,31.98
2022-12-06T08:51:39.989Z,32.85
2022-12-06T08:54:10.521Z,27.30
2022-12-06T08:56:38.156Z,31.02
2022-12-06T08:59:06.468Z,30.00
2022-12-06T09:01:37.748Z,29.52
2022-12-06T09:04:08.366Z,29.10
2022-12-06T09:06:40.582Z,30.98
2022-12-06T09:09:10.087Z,30.35
2022-12-06T09:11:39.330Z,32.42
2022-12-06T09:14:09.206Z,31.90
2022-12-06T09:16:38.130Z,31.90
2022-12-06T09:19:06.011Z,30.63
2022-12-06T09:21:34.586Z,30.23
2022-12-06T09:24:02.100Z,29.08
2022-12-06T09:26:30.201Z,27.70
2022-12-06T09:28:58.809Z,32.25
2022-12-06T09:31:26.456Z,29.98
2022-12-06T09:33:54.483Z,30.58
2022-12-06T09:36:28.171Z,28.08
2022-12-06T09:42:03.698Z,30.13
2022-12-06T09:44:52.765Z,28.27
2022-12-06T09:47:48.146Z,29.70
2022-12-06T09:50:49.395Z,30.83
2022-12-06T09:53:17.000Z,30.10
2022-12-06T09:56:20.865Z,28.63
2022-12-06T09:58:54.407Z,27.50
2022-12-06T10:01:37.432Z,26.50
2022-12-06T10:04:23.562Z,24.48
2022-12-06T10:07:50.572Z,25.88
2022-12-06T10:10:46.162Z,24.80
2022-12-06T10:13:37.531Z,24.27
2022-12-06T10:16:24.360Z,25.85
2022-12-06T10:19:29.988Z,26.27
2022-12-06T10:21:57.769Z,24.45
2022-12-06T10:24:41.032Z,23.23
2022-12-06T10:27:39.055Z,25.30
2022-12-06T10:30:10.892Z,23.45
2022-12-06T10:32:44.533Z,24.52
2022-12-06T10:35:41.474Z,22.55
2022-12-06T10:38:21.600Z,22.98
2022-12-06T10:40:52.573Z,30.48
2022-12-06T10:43:29.405Z,24.92
2022-12-06T10:46:34.923Z,25.20
2022-12-06T10:49:35.095Z,24.75
2022-12-06T10:52:17.071Z,21.85
2022-12-06T10:55:02.668Z,23.10
2022-12-06T10:57:57.749Z,23.05
2022-12-06T11:00:27.408Z,22.13
2022-12-06T11:03:10.669Z,22.05
2022-12-06T11:06:28.278Z,23.50
2022-12-06T11:09:01.636Z,21.75
2022-12-06T11:11:35.200Z,22.95
2022-12-06T11:14:24.605Z,26.10
2022-12-06T11:17:03.945Z,23.50
2022-12-06T11:19:34.806Z,24.13
2022-12-06T11:22:08.621Z,23.05
2022-12-06T11:27:22.960Z,21.73
2022-12-06T11:29:51.834Z,25.00
2022-12-06T11:32:20.772Z,23.50
2022-12-06T11:34:52.510Z,23.35
2022-12-06T11:37:23.882Z,24.20
2022-12-06T11:39:56.375Z,24.55
2022-12-06T11:42:28.402Z,23.25
2022-12-06T11:45:13.799Z,23.30
2022-12-06T11:47:41.719Z,23.90
2022-12-06T11:50:18.459Z,24.13
2022-12-06T11:53:09.973Z,24.55
2022-12-06T11:55:43.636Z,23.63
2022-12-06T11:58:11.204Z,25.02
2022-12-06T12:00:56.523Z,24.38
2022-12-06T12:03:33.333Z,23.92
2022-12-06T12:06:29.366Z,21.80
2022-12-06T12:09:00.955Z,22.15
2022-12-06T12:11:34.405Z,23.52
2022-12-06T12:14:23.885Z,23.27
2022-12-06T12:17:03.657Z,23.77
2022-12-06T12:19:50.259Z,24.58
2022-12-06T12:22:40.010Z,23.52
2022-12-06T12:25:36.495Z,24.15
2022-12-06T12:28:24.720Z,24.40
2022-12-06T12:30:55.187Z,23.85
2022-12-06T12:33:25.128Z,23.10
2022-12-06T12:36:02.216Z,24.75
2022-12-06T12:38:37.258Z,23.75
2022-12-06T12:41:22.357Z,24.42
2022-12-06T12:47:00.291Z,21.13
2022-12-06T12:49:28.296Z,20.77
2022-12-06T12:51:57.134Z,23.02
2022-12-06T12:54:33.824Z,23.05
2022-12-06T12:57:07.192Z,24.55
2022-12-06T12:59:40.183Z,25.00
2022-12-06T13:02:29.717Z,22.00
2022-12-06T13:05:31.426Z,23.05
2022-12-06T13:07:59.977Z,23.20
2022-12-06T13:10:32.344Z,21.23
2022-12-06T13:13:03.932Z,19.73
2022-12-06T13:15:36.833Z,19.92
2022-12-06T13:18:18.672Z,20.90
2022-12-06T13:20:48.675Z,20.55
2022-12-06T13:23:20.100Z,21.13
2022-12-06T13:25:55.326Z,21.10
2022-12-06T13:28:29.509Z,21.42
2022-12-06T13:31:04.593Z,22.10
2022-12-06T13:33:37.152Z,20.38
2022-12-06T13:36:11.340Z,21.17
2022-12-06T13:38:41.166Z,20.15
2022-12-06T13:41:14.260Z,20.52
2022-12-06T13:43:48.511Z,19.38
2022-12-06T13:46:23.342Z,20.48
2022-12-06T13:48:55.501Z,22.08
2022-12-06T13:51:35.278Z,19.73
2022-12-06T13:54:06.081Z,21.33
2022-12-06T13:56:33.719Z,20.67
2022-12-06T13:59:11.785Z,22.05
2022-12-06T14:01:59.211Z,20.60
2022-12-06T14:09:49.489Z,21.60
2022-12-06T14:12:29.219Z,21.25
2022-12-06T14:14:58.126Z,21.20
2022-12-06T14:18:09.643Z,22.35
2022-12-06T14:20:37.075Z,23.05
2022-12-06T14:23:23.677Z,23.15
2022-12-06T14:25:51.748Z,22.77
2022-12-06T14:28:20.236Z,22.40
2022-12-06T14:30:49.080Z,21.73
2022-12-06T14:33:23.762Z,22.20
2022-12-06T14:35:53.803Z,23.45
2022-12-06T14:38:26.823Z,24.65
2022-12-06T14:41:14.092Z,22.60
2022-12-06T14:43:46.530Z,25.98
2022-12-06T14:46:17.237Z,24.02
2022-12-06T14:49:03.969Z,25.80
2022-12-06T14:51:41.036Z,25.50
2022-12-06T14:54:42.163Z,25.00
2022-12-06T14:57:28.603Z,23.92
2022-12-06T15:00:19.413Z,26.80
2022-12-06T15:03:06.601Z,25.55
2022-12-06T15:05:41.236Z,25.92
2022-12-06T15:08:27.638Z,25.75
2022-12-06T15:10:57.140Z,25.02
2022-12-06T15:13:25.977Z,26.05
2022-12-06T15:16:19.951Z,24.73
2022-12-06T15:19:00.580Z,25.90
2022-12-06T15:21:28.211Z,27.25
2022-12-06T15:23:57.347Z,27.35
2022-12-06T15:26:25.497Z,27.02
2022-12-06T15:28:53.480Z,27.42
2022-12-06T15:31:27.258Z,28.20
2022-12-06T15:33:56.839Z,27.95
2022-12-06T15:36:30.894Z,26.70
2022-12-06T15:38:59.082Z,28.50
2022-12-06T15:41:28.890Z,24.80
2022-12-06T15:43:59.251Z,26.55
2022-12-06T15:46:28.752Z,24.90
2022-12-06T15:48:56.549Z,27.65
2022-12-06T15:51:27.360Z,25.70
2022-12-06T15:53:57.652Z,27.42
2022-12-06T15:56:29.395Z,26.77
2022-12-06T15:58:56.978Z,26.52
2022-12-06T16:01:47.558Z,27.33
2022-12-06T16:04:16.134Z,28.63
2022-12-06T16:06:45.334Z,26.90
2022-12-06T16:09:14.184Z,26.83
2022-12-06T16:11:42.569Z,29.10
2022-12-06T16:14:10.255Z,27.63
2022-12-06T16:16:43.219Z,28.92
2022-12-06T16:19:11.284Z,28.08
2022-12-06T16:21:54.392Z,27.58
2022-12-06T16:24:22.196Z,29.80
2022-12-06T16:26:49.896Z,39.30
2022-12-06T16:29:25.046Z,36.85
2022-12-06T16:31:54.196Z,45.70
2022-12-06T16:34:22.574Z,31.80
2022-12-06T16:36:58.943Z,28.27
2022-12-06T16:39:28.671Z,31.38
2022-12-06T16:41:56.437Z,30.67
2022-12-06T16:44:24.511Z,32.00
2022-12-06T16:46:52.397Z,32.15
2022-12-06T16:49:45.310Z,32.33
2022-12-06T16:52:10.405Z,31.60
2022-12-06T16:54:41.577Z,32.13
2022-12-06T16:57:14.606Z,31.10
2022-12-06T16:59:42.921Z,31.50
2022-12-06T17:02:24.907Z,33.20
2022-12-06T17:04:52.762Z,29.52
2022-12-06T17:07:20.426Z,31.95
2022-12-06T17:09:48.458Z,31.88
2022-12-06T17:12:16.071Z,35.17
2022-12-06T17:14:43.820Z,30.88
2022-12-06T17:17:16.322Z,30.23
2022-12-06T17:19:44.392Z,34.65
2022-12-06T17:22:15.625Z,32.88
2022-12-06T17:24:43.815Z,33.85
2022-12-06T17:27:14.752Z,31.52
2022-12-06T17:29:44.559Z,33.40
2022-12-06T17:32:12.736Z,33.97
2022-12-06T17:34:40.338Z,36.05
2022-12-06T17:37:08.273Z,31.27
2022-12-06T17:39:36.035Z,33.28
2022-12-06T17:42:22.246Z,34.40
2022-12-06T17:44:51.105Z,32.65
2022-12-06T17:47:19.754Z,32.38
2022-12-06T17:49:47.516Z,34.58
2022-12-06T17:52:15.448Z,34.95
2022-12-06T17:54:43.489Z,32.72
2022-12-06T17:57:17.669Z,32.03
2022-12-06T17:59:47.418Z,34.40
2022-12-06T18:02:18.922Z,32.90
2022-12-06T18:04:48.428Z,33.30
2022-12-06T18:07:17.358Z,34.88
2022-12-06T18:09:46.395Z,33.78
2022-12-06T18:12:16.024Z,32.92
2022-12-06T18:14:45.096Z,31.75
2022-12-06T18:17:13.249Z,33.60
2022-12-06T18:19:40.903Z,40.30
2022-12-06T18:22:08.833Z,32.95
2022-12-06T18:24:36.719Z,34.10
2022-12-06T18:27:06.468Z,33.33
2022-12-06T18:29:34.869Z,37.45
2022-12-06T18:32:03.590Z,37.45
2022-12-06T18:34:31.678Z,33.25
2022-12-06T18:36:59.422Z,34.15
2022-12-06T18:39:28.136Z,38.90
2022-12-06T18:41:57.182Z,36.47
2022-12-06T18:44:24.805Z,34.05
2022-12-06T18:46:52.554Z,35.92
2022-12-06T18:49:20.212Z,35.45
2022-12-06T18:51:48.343Z,32.80
2022-12-06T18:54:15.941Z,32.40
2022-12-06T18:56:43.558Z,30.23
2022-12-06T18:59:12.313Z,31.63
2022-12-06T19:01:41.160Z,31.77
2022-12-06T19:04:14.386Z,33.00
2022-12-06T19:06:43.294Z,33.80
2022-12-06T19:09:15.087Z,33.65
2022-12-06T19:11:45.961Z,33.92
2022-12-06T19:14:15.044Z,33.58
2022-12-06T19:16:47.746Z,34.72
2022-12-06T19:19:21.577Z,30.67
2022-12-06T19:24:20.801Z,33.25
2022-12-06T19:26:50.609Z,31.17
2022-12-06T19:29:18.686Z,31.80
2022-12-06T19:31:46.404Z,31.23
2022-12-06T19:34:22.971Z,28.75
2022-12-06T19:36:52.533Z,30.25
2022-12-06T19:39:21.173Z,28.77
2022-12-06T19:42:07.156Z,28.70
2022-12-06T19:44:35.136Z,30.85
2022-12-06T19:47:03.190Z,32.80
2022-12-06T19:49:31.493Z,29.50
2022-12-06T19:51:59.320Z,30.85
2022-12-06T19:54:29.351Z,30.95
2022-12-06T19:56:59.365Z,29.27
2022-12-06T19:59:34.312Z,30.05
2022-12-06T20:02:03.159Z,33.03
2022-12-06T20:04:33.926Z,32.00
2022-12-06T20:07:02.528Z,35.05
2022-12-06T20:09:31.523Z,33.30
2022-12-06T20:12:01.432Z,32.50
2022-12-06T20:14:35.330Z,30.25
2022-12-06T20:19:32.186Z,32.03
2022-12-06T20:22:00.603Z,31.23
2022-12-06T20:24:28.245Z,31.05
2022-12-06T20:26:56.428Z,31.65
2022-12-06T20:29:26.507Z,31.65
2022-12-06T20:31:56.382Z,28.98
2022-12-06T20:34:26.178Z,30.02
2022-12-06T20:36:55.215Z,28.52
2022-12-06T20:39:26.592Z,31.48
2022-12-06T20:41:54.438Z,30.83
2022-12-06T20:44:22.427Z,27.88
2022-12-06T20:46:50.412Z,33.53
2022-12-06T20:49:18.575Z,28.67
2022-12-06T20:51:52.374Z,29.00
2022-12-06T20:54:21.475Z,29.38
2022-12-06T20:56:52.065Z,29.30
2022-12-06T20:59:20.459Z,29.73
2022-12-06T21:01:48.573Z,30.90
2022-12-06T21:04:16.917Z,29.40
2022-12-06T21:06:45.125Z,26.48
2022-12-06T21:09:12.766Z,26.55
2022-12-06T21:11:40.934Z,24.17
2022-12-06T21:14:12.084Z,27.73
2022-12-06T21:16:41.274Z,27.73
2022-12-06T21:19:13.478Z,28.23
2022-12-06T21:21:45.571Z,28.70
2022-12-06T21:24:18.357Z,27.67
2022-12-06T21:26:47.294Z,28.63
2022-12-06T21:29:30.648Z,27.35
2022-12-06T21:32:01.606Z,25.17
2022-12-06T21:34:29.606Z,25.85
2022-12-06T21:36:57.690Z,23.50
2022-12-06T21:39:25.278Z,27.13
2022-12-06T21:41:54.078Z,26.98
2022-12-06T21:44:21.812Z,27.98
2022-12-06T21:46:53.742Z,25.63
2022-12-06T21:49:21.769Z,25.85
2022-12-06T21:51:49.422Z,27.35
2022-12-06T21:54:16.982Z,29.15
2022-12-06T21:56:45.284Z,22.58
2022-12-06T21:59:13.209Z,28.15
2022-12-06T22:01:41.444Z,27.45
2022-12-06T22:04:09.422Z,26.38
2022-12-06T22:06:37.390Z,26.67
2022-12-06T22:09:06.950Z,24.15
2022-12-06T22:11:35.036Z,26.52
2022-12-06T22:14:04.922Z,24.38
2022-12-06T22:16:33.273Z,25.10
2022-12-06T22:19:01.353Z,26.45
2022-12-06T22:21:31.437Z,25.92
2022-12-06T22:23:59.508Z,26.48
2022-12-06T22:26:30.531Z,23.55
2022-12-06T22:28:59.817Z,24.20
2022-12-06T22:31:33.673Z,25.38
2022-12-06T22:34:02.072Z,25.67
2022-12-06T22:36:30.851Z,25.33
2022-12-06T22:39:01.397Z,22.90
2022-12-06T22:41:29.977Z,24.70
2022-12-06T22:44:02.910Z,25.10
2022-12-06T22:46:32.057Z,23.52
2022-12-06T22:49:01.410Z,22.70
2022-12-06T22:51:33.990Z,22.27
2022-12-06T22:54:07.524Z,23.52
2022-12-06T22:56:35.626Z,23.02
2022-12-06T22:59:03.801Z,23.30
2022-12-06T23:01:34.325Z,23.38
2022-12-06T23:04:05.092Z,25.38
2022-12-06T23:06:34.760Z,24.90
2022-12-06T23:09:03.913Z,22.33
2022-12-06T23:11:33.951Z,23.85
2022-12-06T23:14:04.374Z,22.88
2022-12-06T23:16:33.244Z,23.92
2022-12-06T23:19:03.558Z,23.48
2022-12-06T23:21:34.618Z,22.88
2022-12-06T23:24:08.248Z,24.10
2022-12-06T23:26:39.576Z,22.38
2022-12-06T23:29:07.742Z,23.17
2022-12-06T23:31:38.291Z,21.95
2022-12-06T23:34:10.051Z,23.45
2022-12-06T23:36:37.906Z,21.60
2022-12-06T23:39:06.238Z,23.52
2022-12-06T23:41:35.211Z,21.98
2022-12-06T23:44:03.944Z,23.15
2022-12-06T23:46:35.657Z,22.30
2022-12-06T23:49:04.588Z,24.52
2022-12-06T23:51:38.282Z,23.30
2022-12-06T23:56:37.975Z,25.13
2022-12-06T23:59:07.647Z,25.50
